Time;durP1;ratioP1;P1;durP2;ratioP2;P2;SDS_P1;SDS_P2;PMS_P1;PMS_P2;Temp;Humidity;BMP_temperature;BMP_pressure;BME280_temperature;BME280_humidity;BME280_pressure;Samples;Min_cycle;Max_cycle;Signal;HPM_P1;HPM_P2
2023/04/01 00:01:34;;;;;;;;;;;7.00;99.90;;;;;;8249716;28;19913;-77
2023/04/01 00:05:35;;;;;;;;;;;7.00;99.90;;;;;;8249821;28;19914;-77
2023/04/01 00:09:35;;;;;;;;;;;6.90;99.90;;;;;;8258698;28;19910;-76
2023/04/01 00:13:36;;;;;;;;;;;6.90;99.90;;;;;;8252923;28;19910;-77
2023/04/01 00:17:37;;;;;;;;;;;6.90;99.90;;;;;;8255212;28;19909;-77
2023/04/01 00:21:37;;;;;;;;;;;6.90;99.90;;;;;;8256167;28;19961;-76
2023/04/01 00:25:38;;;;;;;;;;;6.80;99.90;;;;;;8258713;28;20432;-77
2023/04/01 00:29:41;;;;;;;;;;;6.80;99.90;;;;;;8258659;28;20302;-77
2023/04/01 00:33:41;;;;;;;;;;;6.80;99.90;;;;;;8250977;28;19909;-77
2023/04/01 00:37:42;;;;;;;;;;;6.80;99.90;;;;;;8260042;28;20309;-77
2023/04/01 00:41:42;;;;;;;;;;;6.70;99.90;;;;;;8254711;28;19948;-77
2023/04/01 00:45:43;;;;;;;;;;;6.70;99.90;;;;;;8246811;28;19909;-76
2023/04/01 00:49:45;;;;;;;;;;;6.60;99.90;;;;;;8244492;28;19913;-76
2023/04/01 00:53:47;;;;;;;;;;;6.50;99.90;;;;;;8257982;28;20005;-77
2023/04/01 00:57:50;;;;;;;;;;;6.60;99.90;;;;;;8235538;28;19924;-76
2023/04/01 01:01:50;;;;;;;;;;;6.50;99.90;;;;;;8234840;28;19972;-78
2023/04/01 01:06:10;;;;;;;;;;;6.40;99.90;;;;;;8252970;28;19956;-78
2023/04/01 01:10:29;;;;;;;;;;;6.50;99.90;;;;;;8242608;28;19906;-77
2023/04/01 01:14:36;;;;;;;;;;;6.60;99.90;;;;;;8263622;28;19965;-77
2023/04/01 01:19:09;;;;;;;;;;;6.70;99.90;;;;;;8244480;28;19976;-77
2023/04/01 01:23:30;;;;;;;;;;;6.50;99.90;;;;;;8244662;28;19909;-76
2023/04/01 01:27:31;;;;;;;;;;;6.50;99.90;;;;;;8248762;28;20543;-76
2023/04/01 01:31:31;;;;;;;;;;;6.40;99.90;;;;;;8258365;28;19921;-77
2023/04/01 01:35:46;;;;;;;;;;;6.40;99.90;;;;;;8253619;28;19905;-77
2023/04/01 01:39:50;;;;;;;;;;;6.30;99.90;;;;;;8261425;28;19909;-77
2023/04/01 01:43:52;;;;;;;;;;;6.10;99.90;;;;;;8261996;28;19914;-78
2023/04/01 01:47:53;;;;;;;;;;;6.10;99.90;;;;;;8263253;28;19910;-76
2023/04/01 01:51:53;;;;;;;;;;;6.10;99.90;;;;;;8263447;28;20033;-78
2023/04/01 01:55:54;;;;;;;;;;;6.10;99.90;;;;;;8251232;28;19918;-76
2023/04/01 01:59:56;;;;;;;;;;;6.20;99.90;;;;;;8258431;28;19906;-77
2023/04/01 02:03:57;;;;;;;;;;;6.40;99.90;;;;;;8260863;28;19912;-78
2023/04/01 02:08:05;;;;;;;;;;;6.40;99.90;;;;;;8264003;28;19913;-78
2023/04/01 02:12:06;;;;;;;;;;;6.40;99.90;;;;;;8246653;28;19910;-78
2023/04/01 02:16:20;;;;;;;;;;;6.40;99.90;;;;;;8263648;28;19906;-76
2023/04/01 02:20:22;;;;;;;;;;;6.20;99.90;;;;;;8258318;28;20330;-76
2023/04/01 02:24:23;;;;;;;;;;;6.00;99.90;;;;;;8250777;28;19913;-76
2023/04/01 02:28:24;;;;;;;;;;;6.00;99.90;;;;;;8253519;28;20507;-77
2023/04/01 02:32:26;;;;;;;;;;;5.90;99.90;;;;;;8249478;28;19949;-77
2023/04/01 02:36:27;;;;;;;;;;;5.80;99.90;;;;;;8254412;28;19941;-76
2023/04/01 02:40:27;;;;;;;;;;;5.80;99.90;;;;;;8247775;28;19916;-76
2023/04/01 02:44:28;;;;;;;;;;;5.70;99.90;;;;;;8246279;28;19906;-77
2023/04/01 02:48:29;;;;;;;;;;;5.70;99.90;;;;;;8241395;28;19910;-77
2023/04/01 02:52:29;;;;;;;;;;;5.60;99.90;;;;;;8241848;28;19994;-77
2023/04/01 02:56:30;;;;;;;;;;;5.60;99.90;;;;;;8261183;28;20421;-77
2023/04/01 03:00:30;;;;;;;;;;;5.70;99.90;;;;;;8262482;28;19909;-78
2023/04/01 03:04:31;;;;;;;;;;;5.90;99.90;;;;;;8253927;28;20370;-76
2023/04/01 03:08:31;;;;;;;;;;;6.00;99.90;;;;;;8251091;28;19910;-76
2023/04/01 03:12:31;;;;;;;;;;;6.00;99.90;;;;;;8261533;28;19906;-77
2023/04/01 03:16:32;;;;;;;;;;;6.00;99.90;;;;;;8261341;28;20362;-77
2023/04/01 03:20:32;;;;;;;;;;;6.00;99.90;;;;;;8246656;28;19917;-78
2023/04/01 03:24:33;;;;;;;;;;;6.00;99.90;;;;;;8245570;28;19917;-77
2023/04/01 03:28:34;;;;;;;;;;;6.10;99.90;;;;;;8260833;28;19913;-78
2023/04/01 03:32:34;;;;;;;;;;;6.10;99.90;;;;;;8250070;28;20001;-76
2023/04/01 03:36:35;;;;;;;;;;;6.20;99.90;;;;;;8256517;28;19909;-77
2023/04/01 03:40:38;;;;;;;;;;;6.10;99.90;;;;;;8247684;28;20378;-76
2023/04/01 03:44:38;;;;;;;;;;;6.10;99.90;;;;;;8251343;28;20024;-77
2023/04/01 03:48:39;;;;;;;;;;;6.20;99.90;;;;;;8235512;28;19925;-77
2023/04/01 03:52:39;;;;;;;;;;;6.10;99.90;;;;;;8244051;28;19975;-78
2023/04/01 03:56:40;;;;;;;;;;;6.30;99.90;;;;;;8249906;28;20012;-77
2023/04/01 04:00:40;;;;;;;;;;;6.30;99.90;;;;;;8259301;28;19914;-77
2023/04/01 04:04:41;;;;;;;;;;;6.20;99.90;;;;;;8241606;28;20406;-76
2023/04/01 04:08:41;;;;;;;;;;;6.20;99.90;;;;;;8259125;28;19945;-76
2023/04/01 04:12:42;;;;;;;;;;;6.00;99.90;;;;;;8247428;28;20009;-77
2023/04/01 04:16:42;;;;;;;;;;;5.90;99.90;;;;;;8248209;28;19966;-76
2023/04/01 04:20:45;;;;;;;;;;;5.90;99.90;;;;;;8240040;28;19961;-76
2023/04/01 04:24:45;;;;;;;;;;;5.90;99.90;;;;;;8227438;28;19910;-76
2023/04/01 04:28:46;;;;;;;;;;;5.90;99.90;;;;;;8248976;28;19914;-76
2023/04/01 04:32:46;;;;;;;;;;;5.90;99.90;;;;;;8226032;28;20322;-77
2023/04/01 04:36:47;;;;;;;;;;;6.00;99.90;;;;;;8223855;28;19910;-78
2023/04/01 04:40:47;;;;;;;;;;;6.00;99.90;;;;;;8244652;28;19921;-77
2023/04/01 04:44:48;;;;;;;;;;;6.00;99.90;;;;;;8243467;28;19910;-77
2023/04/01 04:48:48;;;;;;;;;;;6.00;99.90;;;;;;8250263;28;20285;-76
2023/04/01 04:52:49;;;;;;;;;;;6.20;99.90;;;;;;8231129;28;19917;-77
2023/04/01 04:56:51;;;;;;;;;;;6.10;99.90;;;;;;8233364;28;19949;-77
2023/04/01 05:00:51;;;;;;;;;;;6.30;99.90;;;;;;8250918;28;20406;-77
2023/04/01 05:04:52;;;;;;;;;;;6.40;99.90;;;;;;8254099;28;20021;-77
2023/04/01 05:08:52;;;;;;;;;;;6.50;99.90;;;;;;8248684;28;19906;-77
2023/04/01 05:12:53;;;;;;;;;;;6.50;99.90;;;;;;8258523;28;19968;-76
2023/04/01 05:16:54;;;;;;;;;;;6.50;99.90;;;;;;8260960;28;19905;-76
2023/04/01 05:20:54;;;;;;;;;;;6.60;99.90;;;;;;8252329;28;19932;-77
2023/04/01 05:24:55;;;;;;;;;;;6.60;99.90;;;;;;8260051;28;19909;-77
2023/04/01 05:28:55;;;;;;;;;;;6.60;99.90;;;;;;8259908;28;19909;-78
2023/04/01 05:32:55;;;;;;;;;;;6.70;99.90;;;;;;8247331;28;20642;-77
2023/04/01 05:36:56;;;;;;;;;;;6.70;99.90;;;;;;8234606;28;20337;-77
2023/04/01 05:41:02;;;;;;;;;;;6.60;99.90;;;;;;8241835;28;19913;-76
2023/04/01 05:45:02;;;;;;;;;;;6.50;99.90;;;;;;8253733;28;19914;-76
2023/04/01 05:49:03;;;;;;;;;;;6.40;99.90;;;;;;8233719;28;19913;-77
2023/04/01 05:53:03;;;;;;;;;;;6.50;99.90;;;;;;8239347;28;19913;-77
2023/04/01 05:57:04;;;;;;;;;;;6.70;99.90;;;;;;8243256;28;19956;-77
2023/04/01 06:01:06;;;;;;;;;;;6.90;99.90;;;;;;8234428;28;19917;-76
2023/04/01 06:05:20;;;;;;;;;;;7.00;99.90;;;;;;8260734;28;19953;-77
2023/04/01 06:09:26;;;;;;;;;;;7.10;99.90;;;;;;8244939;28;19949;-77
2023/04/01 06:13:45;;;;;;;;;;;7.10;99.90;;;;;;8257341;28;19913;-77
2023/04/01 06:18:00;;;;;;;;;;;7.30;99.90;;;;;;8245373;28;19916;-77
2023/04/01 06:22:03;;;;;;;;;;;7.30;99.90;;;;;;8260338;28;19910;-77
2023/04/01 06:26:12;;;;;;;;;;;7.50;99.90;;;;;;8250696;28;20334;-77
2023/04/01 06:30:31;;;;;;;;;;;7.50;99.90;;;;;;8231743;28;19918;-76
2023/04/01 06:34:35;;;;;;;;;;;7.60;99.90;;;;;;8232672;28;19909;-77
2023/04/01 06:38:47;;;;;;;;;;;7.60;99.90;;;;;;8232532;28;20369;-78
2023/04/01 06:43:23;;;;;;;;;;;7.60;99.90;;;;;;8233184;28;19960;-77
2023/04/01 06:47:36;;;;;;;;;;;7.60;99.90;;;;;;8171478;28;19953;-77
2023/04/01 06:51:54;;;;;;;;;;;7.80;99.90;;;;;;8245307;28;20420;-77
2023/04/01 06:56:01;;;;;;;;;;;7.90;99.90;;;;;;8245237;28;19920;-77
2023/04/01 07:00:03;;;;;;;;;;;8.00;99.90;;;;;;8247496;28;19916;-77
2023/04/01 07:04:19;;;;;;;;;;;8.00;99.90;;;;;;8249208;28;19941;-77
2023/04/01 07:08:25;;;;;;;;;;;8.40;99.90;;;;;;8240948;28;20405;-77
2023/04/01 07:12:31;;;;;;;;;;;8.60;99.90;;;;;;8261166;28;20346;-77
2023/04/01 07:16:34;;;;;;;;;;;8.80;99.90;;;;;;8248971;28;19910;-77
2023/04/01 07:20:38;;;;;;;;;;;8.60;99.90;;;;;;8236292;28;19914;-77
2023/04/01 07:24:40;;;;;;;;;;;8.40;99.90;;;;;;8244875;28;19909;-76
2023/04/01 07:28:40;;;;;;;;;;;8.40;99.90;;;;;;8257040;28;19925;-76
2023/04/01 07:32:45;;;;;;;;;;;8.40;99.90;;;;;;8238814;28;19926;-76
2023/04/01 07:36:48;;;;;;;;;;;8.60;99.90;;;;;;8250344;28;20607;-76
2023/04/01 07:40:57;;;;;;;;;;;8.70;99.90;;;;;;8247904;28;19918;-77
2023/04/01 07:45:10;;;;;;;;;;;8.90;99.90;;;;;;8225672;28;19956;-76
2023/04/01 07:49:13;;;;;;;;;;;9.30;99.90;;;;;;8246953;28;20032;-77
2023/04/01 07:53:23;;;;;;;;;;;9.30;99.90;;;;;;8232531;28;19914;-76
2023/04/01 07:57:42;;;;;;;;;;;9.60;99.90;;;;;;8241465;28;19922;-76
2023/04/01 08:01:45;;;;;;;;;;;9.50;99.90;;;;;;8227577;28;19917;-77
2023/04/01 08:05:46;;;;;;;;;;;9.90;99.90;;;;;;8233362;28;19910;-76
2023/04/01 08:09:54;;;;;;;;;;;10.30;99.90;;;;;;8241943;28;20374;-76
2023/04/01 08:14:05;;;;;;;;;;;10.70;99.90;;;;;;8250395;28;19910;-77
2023/04/01 08:18:11;;;;;;;;;;;10.30;99.90;;;;;;8237815;28;19910;-78
2023/04/01 08:22:19;;;;;;;;;;;10.20;99.90;;;;;;8230112;28;20301;-79
2023/04/01 08:26:32;;;;;;;;;;;10.40;99.90;;;;;;8245548;28;20298;-78
2023/04/01 08:30:38;;;;;;;;;;;10.30;99.90;;;;;;8232273;28;19917;-78
2023/04/01 08:34:40;;;;;;;;;;;10.10;99.90;;;;;;8223951;28;19909;-76
2023/04/01 08:38:46;;;;;;;;;;;9.90;99.90;;;;;;8232042;28;20012;-77
2023/04/01 08:43:05;;;;;;;;;;;9.80;99.90;;;;;;8234690;28;20577;-78
2023/04/01 08:47:06;;;;;;;;;;;9.90;99.90;;;;;;8248756;28;20247;-77
2023/04/01 08:51:45;;;;;;;;;;;10.10;99.90;;;;;;8239301;28;19916;-78
2023/04/01 08:55:48;;;;;;;;;;;10.20;99.90;;;;;;8226833;28;19914;-78
2023/04/01 09:00:04;;;;;;;;;;;10.40;99.90;;;;;;8225933;28;20409;-78
2023/04/01 09:04:17;;;;;;;;;;;10.30;99.90;;;;;;8229044;28;20443;-78
2023/04/01 09:08:18;;;;;;;;;;;10.00;99.90;;;;;;8224839;28;19916;-78
2023/04/01 09:12:18;;;;;;;;;;;9.90;99.90;;;;;;8233310;28;19910;-78
2023/04/01 09:16:40;;;;;;;;;;;9.80;99.90;;;;;;8248429;28;19912;-78
2023/04/01 09:20:47;;;;;;;;;;;9.60;99.90;;;;;;8237414;28;19929;-77
2023/04/01 09:25:06;;;;;;;;;;;9.60;99.90;;;;;;8242129;28;19906;-77
2023/04/01 09:29:25;;;;;;;;;;;9.40;99.90;;;;;;8242712;28;19914;-79
2023/04/01 09:33:42;;;;;;;;;;;9.30;99.90;;;;;;8241830;28;19960;-77
2023/04/01 09:37:52;;;;;;;;;;;9.10;99.90;;;;;;8250287;28;19913;-78
2023/04/01 09:41:56;;;;;;;;;;;8.90;99.90;;;;;;8249935;28;20000;-77
2023/04/01 09:46:03;;;;;;;;;;;8.80;99.90;;;;;;8253707;28;20417;-78
2023/04/01 09:50:06;;;;;;;;;;;8.70;99.90;;;;;;8240540;28;19910;-77
2023/04/01 09:54:07;;;;;;;;;;;8.70;99.90;;;;;;8238380;28;20306;-77
2023/04/01 09:58:17;;;;;;;;;;;8.70;99.90;;;;;;8236966;28;19995;-77
2023/04/01 10:02:26;;;;;;;;;;;8.80;99.90;;;;;;8264852;28;20008;-78
2023/04/01 10:06:51;;;;;;;;;;;8.90;99.90;;;;;;8241309;28;19968;-77
2023/04/01 10:11:04;;;;;;;;;;;8.90;99.90;;;;;;8252349;28;19916;-79
2023/04/01 10:15:43;;;;;;;;;;;8.90;99.90;;;;;;8249155;28;19917;-77
2023/04/01 10:19:44;;;;;;;;;;;8.90;99.90;;;;;;8111715;29;20583;-79
2023/04/01 10:23:53;;;;;;;;;;;9.00;99.90;;;;;;8173494;28;19916;-78
2023/04/01 10:28:23;;;;;;;;;;;9.00;99.90;;;;;;8242689;28;19914;-77
2023/04/01 10:32:42;;;;;;;;;;;9.10;99.90;;;;;;8227575;28;19972;-78
2023/04/01 10:36:42;;;;;;;;;;;9.20;99.90;;;;;;8235806;28;20355;-77
2023/04/01 10:40:49;;;;;;;;;;;9.40;99.90;;;;;;8233868;28;19921;-78
2023/04/01 10:44:58;;;;;;;;;;;9.30;99.90;;;;;;8234794;28;19909;-78
2023/04/01 10:49:18;;;;;;;;;;;9.30;99.90;;;;;;8229170;28;19910;-78
2023/04/01 10:53:21;;;;;;;;;;;9.30;99.90;;;;;;8233449;28;20011;-79
2023/04/01 10:57:44;;;;;;;;;;;9.30;99.90;;;;;;8252425;28;19914;-80
2023/04/01 11:01:58;;;;;;;;;;;9.50;99.90;;;;;;8246221;28;19913;-78
2023/04/01 11:06:17;;;;;;;;;;;9.70;99.90;;;;;;8245669;28;19910;-79
2023/04/01 11:10:21;;;;;;;;;;;10.00;99.90;;;;;;8239918;28;19913;-79
2023/04/01 11:14:30;;;;;;;;;;;10.10;99.90;;;;;;8237211;28;20400;-78
2023/04/01 11:18:36;;;;;;;;;;;10.30;99.90;;;;;;8234161;28;21098;-78
2023/04/01 11:22:37;;;;;;;;;;;10.50;99.90;;;;;;8242579;28;19918;-79
2023/04/01 11:26:40;;;;;;;;;;;10.10;99.90;;;;;;8243577;28;19916;-79
2023/04/01 11:31:00;;;;;;;;;;;9.90;99.90;;;;;;8231981;28;19906;-77
2023/04/01 11:35:04;;;;;;;;;;;9.90;99.90;;;;;;8250855;28;19910;-77
2023/04/01 11:39:14;;;;;;;;;;;9.60;99.90;;;;;;8250402;28;19977;-77
2023/04/01 11:43:27;;;;;;;;;;;9.20;99.90;;;;;;8237407;28;19996;-78
2023/04/01 11:47:40;;;;;;;;;;;8.70;99.90;;;;;;8241843;28;20290;-79
2023/04/01 11:51:48;;;;;;;;;;;8.50;99.90;;;;;;8254598;28;19913;-81
2023/04/01 11:56:02;;;;;;;;;;;8.50;99.90;;;;;;8258435;28;20457;-81
2023/04/01 12:00:14;;;;;;;;;;;8.20;99.90;;;;;;8256020;28;20505;-80
2023/04/01 12:04:24;;;;;;;;;;;8.20;99.90;;;;;;8250866;28;19913;-81
2023/04/01 12:08:29;;;;;;;;;;;8.20;99.90;;;;;;8243972;28;19917;-78
2023/04/01 12:12:35;;;;;;;;;;;8.40;99.90;;;;;;8255636;28;19906;-80
2023/04/01 12:16:39;;;;;;;;;;;8.70;99.90;;;;;;8255492;28;19949;-80
2023/04/01 12:20:48;;;;;;;;;;;8.90;99.90;;;;;;8247513;28;19910;-79
2023/04/01 12:24:51;;;;;;;;;;;9.00;99.90;;;;;;8252667;28;19968;-81
2023/04/01 12:29:07;;;;;;;;;;;9.00;99.90;;;;;;8241285;28;19913;-79
2023/04/01 12:33:26;;;;;;;;;;;9.20;99.90;;;;;;8229673;28;20362;-78
2023/04/01 12:37:39;;;;;;;;;;;9.00;99.90;;;;;;8243383;28;19973;-80
2023/04/01 12:41:40;;;;;;;;;;;9.00;99.90;;;;;;8257593;28;19909;-78
2023/04/01 12:45:40;;;;;;;;;;;9.00;99.90;;;;;;8249955;28;19913;-80
2023/04/01 12:49:56;;;;;;;;;;;9.10;99.90;;;;;;8240677;28;19934;-79
2023/04/01 12:54:18;;;;;;;;;;;9.10;99.90;;;;;;8251042;28;19916;-79
2023/04/01 12:58:22;;;;;;;;;;;9.20;99.90;;;;;;8236820;28;19914;-79
2023/04/01 13:02:22;;;;;;;;;;;9.30;99.90;;;;;;8256161;28;19995;-79
2023/04/01 13:06:35;;;;;;;;;;;9.40;99.90;;;;;;8261699;28;19913;-80
2023/04/01 13:10:43;;;;;;;;;;;9.50;99.90;;;;;;8260062;28;19909;-80
2023/04/01 13:14:52;;;;;;;;;;;9.40;99.90;;;;;;8254505;28;19965;-80
2023/04/01 13:18:56;;;;;;;;;;;9.30;99.90;;;;;;8263384;28;19956;-78
2023/04/01 13:23:06;;;;;;;;;;;9.30;99.90;;;;;;8266142;28;19913;-78
2023/04/01 13:27:06;;;;;;;;;;;9.50;99.90;;;;;;8257198;28;19997;-78
2023/04/01 13:31:25;;;;;;;;;;;9.40;99.90;;;;;;8251688;28;19946;-79
2023/04/01 13:35:26;;;;;;;;;;;9.10;99.90;;;;;;8243991;28;19913;-79
2023/04/01 13:39:30;;;;;;;;;;;9.20;99.90;;;;;;8251248;28;20001;-80
2023/04/01 13:43:35;;;;;;;;;;;9.10;99.90;;;;;;8252509;28;19917;-80
2023/04/01 13:47:55;;;;;;;;;;;9.30;99.90;;;;;;8240781;28;19913;-79
2023/04/01 13:52:01;;;;;;;;;;;9.60;99.90;;;;;;8262690;28;19913;-79
2023/04/01 13:56:02;;;;;;;;;;;10.00;99.90;;;;;;8247852;28;19914;-79
2023/04/01 14:00:16;;;;;;;;;;;10.70;99.90;;;;;;8239088;28;20358;-79
2023/04/01 14:04:27;;;;;;;;;;;10.80;99.90;;;;;;8262803;28;20032;-78
2023/04/01 14:08:49;;;;;;;;;;;11.10;99.90;;;;;;8245596;28;19909;-79
2023/04/01 14:12:58;;;;;;;;;;;11.10;99.90;;;;;;8247338;28;19906;-79
2023/04/01 14:17:16;;;;;;;;;;;11.00;99.90;;;;;;8243668;28;19910;-79
2023/04/01 14:21:29;;;;;;;;;;;10.80;99.90;;;;;;8253143;28;19918;-79
2023/04/01 14:25:32;;;;;;;;;;;10.70;99.90;;;;;;8242936;28;19922;-78
2023/04/01 14:29:35;;;;;;;;;;;10.60;99.90;;;;;;8258279;28;19916;-78
2023/04/01 14:33:55;;;;;;;;;;;10.60;99.90;;;;;;8253409;28;19963;-79
2023/04/01 14:38:01;;;;;;;;;;;10.70;99.90;;;;;;8262977;28;19991;-79
2023/04/01 14:42:20;;;;;;;;;;;10.80;99.90;;;;;;8244116;28;19936;-79
2023/04/01 14:46:33;;;;;;;;;;;10.80;99.90;;;;;;8238397;28;20389;-80
2023/04/01 14:50:41;;;;;;;;;;;10.70;99.90;;;;;;8252508;28;19910;-78
2023/04/01 14:54:44;;;;;;;;;;;10.60;99.90;;;;;;8259328;28;19909;-78
2023/04/01 14:58:45;;;;;;;;;;;10.40;99.90;;;;;;8246820;28;20325;-78
2023/04/01 15:02:56;;;;;;;;;;;10.50;99.90;;;;;;8258755;28;19914;-82
2023/04/01 15:07:02;;;;;;;;;;;10.40;99.90;;;;;;8258376;28;20160;-78
2023/04/01 15:11:19;;;;;;;;;;;10.40;99.90;;;;;;8250411;28;19910;-79
2023/04/01 15:15:40;;;;;;;;;;;10.50;99.90;;;;;;8259420;28;20258;-79
2023/04/01 15:19:59;;;;;;;;;;;10.20;99.90;;;;;;8254062;28;19945;-79
2023/04/01 15:24:06;;;;;;;;;;;10.10;99.90;;;;;;8251123;28;20290;-79
2023/04/01 15:28:13;;;;;;;;;;;10.20;99.90;;;;;;8248977;28;19925;-78
2023/04/01 15:32:16;;;;;;;;;;;10.20;99.90;;;;;;8251250;28;19981;-79
2023/04/01 15:36:35;;;;;;;;;;;10.20;99.90;;;;;;8248427;28;19909;-79
2023/04/01 15:40:51;;;;;;;;;;;10.00;99.90;;;;;;8249845;28;20435;-78
2023/04/01 15:45:03;;;;;;;;;;;10.10;99.90;;;;;;8234809;28;19915;-79
2023/04/01 15:49:19;;;;;;;;;;;10.00;99.90;;;;;;8231978;28;20279;-78
2023/04/01 15:53:22;;;;;;;;;;;10.00;99.90;;;;;;8233195;28;19918;-78
2023/04/01 15:57:39;;;;;;;;;;;9.90;99.90;;;;;;8233396;28;20033;-78
2023/04/01 16:01:59;;;;;;;;;;;9.80;99.90;;;;;;8233798;28;19925;-78
2023/04/01 16:06:19;;;;;;;;;;;9.70;99.90;;;;;;8252787;28;19909;-78
2023/04/01 16:10:35;;;;;;;;;;;9.80;99.90;;;;;;8228943;28;19917;-78
2023/04/01 16:14:38;;;;;;;;;;;9.70;99.90;;;;;;8232134;28;20428;-78
2023/04/01 16:18:44;;;;;;;;;;;9.70;99.90;;;;;;8247674;28;19917;-77
2023/04/01 16:22:54;;;;;;;;;;;9.50;99.90;;;;;;8251559;28;19910;-77
2023/04/01 16:27:08;;;;;;;;;;;9.30;99.90;;;;;;8228972;28;19910;-78
2023/04/01 16:31:27;;;;;;;;;;;9.20;99.90;;;;;;8228267;28;19906;-78
2023/04/01 16:35:42;;;;;;;;;;;9.30;99.90;;;;;;8249237;28;19965;-77
2023/04/01 16:39:46;;;;;;;;;;;9.30;99.90;;;;;;8248432;28;20016;-78
2023/04/01 16:43:51;;;;;;;;;;;9.30;99.90;;;;;;8227287;28;19917;-77
2023/04/01 16:47:57;;;;;;;;;;;9.10;99.90;;;;;;8248667;28;20279;-77
2023/04/01 16:52:13;;;;;;;;;;;9.10;99.90;;;;;;8255305;28;19909;-78
2023/04/01 16:56:20;;;;;;;;;;;9.00;99.90;;;;;;8258551;28;19920;-78
2023/04/01 17:00:38;;;;;;;;;;;9.00;99.90;;;;;;8261660;28;19993;-77
2023/04/01 17:04:47;;;;;;;;;;;8.90;99.90;;;;;;8258597;28;19910;-77
2023/04/01 17:09:01;;;;;;;;;;;9.00;99.90;;;;;;8243659;28;19956;-78
2023/04/01 17:13:25;;;;;;;;;;;8.90;99.90;;;;;;8256127;28;19913;-77
2023/04/01 17:17:28;;;;;;;;;;;8.90;99.90;;;;;;8216058;28;19909;-78
2023/04/01 17:21:35;;;;;;;;;;;8.80;99.90;;;;;;8237578;28;20395;-78
2023/04/01 17:25:49;;;;;;;;;;;8.80;99.90;;;;;;8230990;28;19916;-78
2023/04/01 17:29:56;;;;;;;;;;;8.70;99.90;;;;;;8239920;28;20636;-77
2023/04/01 17:34:17;;;;;;;;;;;8.40;99.90;;;;;;8231513;28;19920;-77
2023/04/01 17:38:33;;;;;;;;;;;8.50;99.90;;;;;;8242373;28;19972;-77
2023/04/01 17:42:47;;;;;;;;;;;8.50;99.90;;;;;;8245190;28;19960;-77
2023/04/01 17:47:03;;;;;;;;;;;8.60;99.90;;;;;;8242078;28;19957;-76
2023/04/01 17:51:04;;;;;;;;;;;8.50;99.90;;;;;;8229082;28;19920;-78
2023/04/01 17:55:20;;;;;;;;;;;8.40;99.90;;;;;;8227923;28;19914;-78
2023/04/01 17:59:28;;;;;;;;;;;8.40;99.90;;;;;;8233153;28;19935;-78
2023/04/01 18:03:47;;;;;;;;;;;8.30;99.90;;;;;;8235766;28;19913;-77
2023/04/01 18:08:00;;;;;;;;;;;8.30;99.90;;;;;;8249573;28;19921;-77
2023/04/01 18:12:00;;;;;;;;;;;8.20;99.90;;;;;;8249538;28;20004;-78
2023/04/01 18:16:20;;;;;;;;;;;8.10;99.90;;;;;;8248566;28;19914;-77
2023/04/01 18:20:29;;;;;;;;;;;8.10;99.90;;;;;;8250645;28;20369;-78
2023/04/01 18:24:32;;;;;;;;;;;8.00;99.90;;;;;;8242652;28;20285;-78
2023/04/01 18:28:38;;;;;;;;;;;8.00;99.90;;;;;;8237254;28;19979;-78
2023/04/01 18:32:51;;;;;;;;;;;7.90;99.90;;;;;;8247845;28;19920;-78
2023/04/01 18:36:55;;;;;;;;;;;7.90;99.90;;;;;;8259737;28;20658;-77
2023/04/01 18:41:10;;;;;;;;;;;7.90;99.90;;;;;;8243692;28;20400;-77
2023/04/01 18:45:26;;;;;;;;;;;7.70;99.90;;;;;;8241432;28;20019;-77
2023/04/01 18:49:43;;;;;;;;;;;7.50;99.90;;;;;;8225895;28;19920;-77
2023/04/01 18:53:47;;;;;;;;;;;7.50;99.90;;;;;;8251400;28;19906;-77
2023/04/01 18:57:50;;;;;;;;;;;7.50;99.90;;;;;;8246183;28;19918;-78
2023/04/01 19:01:50;;;;;;;;;;;7.50;99.90;;;;;;8249224;28;19921;-77
2023/04/01 19:05:53;;;;;;;;;;;7.40;99.90;;;;;;8248464;28;19953;-79
2023/04/01 19:09:53;;;;;;;;;;;7.20;99.90;;;;;;8243775;28;19974;-79
2023/04/01 19:14:04;;;;;;;;;;;7.20;99.90;;;;;;8243794;28;19918;-79
2023/04/01 19:18:23;;;;;;;;;;;7.10;99.90;;;;;;8224659;28;20378;-77
2023/04/01 19:22:24;;;;;;;;;;;6.90;99.90;;;;;;8241474;28;20366;-78
2023/04/01 19:26:34;;;;;;;;;;;6.70;99.90;;;;;;8243059;28;19918;-77
2023/04/01 19:30:46;;;;;;;;;;;6.60;99.90;;;;;;8225164;28;19910;-77
2023/04/01 19:34:59;;;;;;;;;;;6.60;99.90;;;;;;8241636;28;19910;-76
2023/04/01 19:39:18;;;;;;;;;;;6.80;99.90;;;;;;8234107;28;20374;-78
2023/04/01 19:43:22;;;;;;;;;;;6.80;99.90;;;;;;8239395;28;19918;-77
2023/04/01 19:47:42;;;;;;;;;;;6.70;99.90;;;;;;8223358;28;19941;-77
2023/04/01 19:52:07;;;;;;;;;;;6.90;99.90;;;;;;8243809;28;20511;-76
2023/04/01 19:56:13;;;;;;;;;;;6.80;99.90;;;;;;8220986;28;19914;-78
2023/04/01 20:00:49;;;;;;;;;;;6.70;99.90;;;;;;8221317;28;19917;-76
2023/04/01 20:04:54;;;;;;;;;;;6.70;99.90;;;;;;8155754;28;20032;-77
2023/04/01 20:09:14;;;;;;;;;;;6.70;99.90;;;;;;8229770;28;19921;-77
2023/04/01 20:13:33;;;;;;;;;;;6.50;99.90;;;;;;8234287;28;20386;-77
2023/04/01 20:17:36;;;;;;;;;;;6.50;99.90;;;;;;8238428;28;19963;-78
2023/04/01 20:21:42;;;;;;;;;;;6.60;99.90;;;;;;8238866;28;20008;-77
2023/04/01 20:25:42;;;;;;;;;;;6.60;99.90;;;;;;8229846;28;19913;-77
2023/04/01 20:30:01;;;;;;;;;;;6.50;99.90;;;;;;8229085;28;19917;-77
2023/04/01 20:34:18;;;;;;;;;;;6.60;99.90;;;;;;8250369;28;19984;-75
2023/04/01 20:38:37;;;;;;;;;;;6.50;99.90;;;;;;8240031;28;20346;-77
2023/04/01 20:42:38;;;;;;;;;;;6.50;99.90;;;;;;8236965;28;19940;-77
2023/04/01 20:46:38;;;;;;;;;;;6.50;99.90;;;;;;8246759;28;19912;-77
2023/04/01 20:50:48;;;;;;;;;;;6.50;99.90;;;;;;8250033;28;19909;-77
2023/04/01 20:54:49;;;;;;;;;;;6.60;99.90;;;;;;8230867;28;19976;-77
2023/04/01 20:58:58;;;;;;;;;;;6.50;99.90;;;;;;8245036;28;19921;-76
2023/04/01 21:03:25;;;;;;;;;;;6.20;99.90;;;;;;8244917;28;19917;-77
2023/04/01 21:07:45;;;;;;;;;;;6.10;99.90;;;;;;8212407;28;20573;-78
2023/04/01 21:11:52;;;;;;;;;;;5.90;99.90;;;;;;8232022;28;20001;-77
2023/04/01 21:16:01;;;;;;;;;;;6.00;99.90;;;;;;8240173;28;20038;-77
2023/04/01 21:20:14;;;;;;;;;;;6.00;99.90;;;;;;8243140;28;19916;-76
2023/04/01 21:24:33;;;;;;;;;;;5.90;99.90;;;;;;8243448;28;20005;-77
2023/04/01 21:28:35;;;;;;;;;;;5.70;99.90;;;;;;8241812;28;19914;-76
2023/04/01 21:32:41;;;;;;;;;;;5.90;99.90;;;;;;8231737;28;19906;-77
2023/04/01 21:36:48;;;;;;;;;;;5.90;99.90;;;;;;8243434;28;19905;-77
2023/04/01 21:41:00;;;;;;;;;;;5.80;99.90;;;;;;8240419;28;19921;-76
2023/04/01 21:45:19;;;;;;;;;;;5.90;99.90;;;;;;8264175;28;19912;-77
2023/04/01 21:49:39;;;;;;;;;;;5.80;99.90;;;;;;8258672;28;20037;-76
2023/04/01 21:53:52;;;;;;;;;;;5.70;99.90;;;;;;8253923;28;19906;-75
2023/04/01 21:57:52;;;;;;;;;;;5.80;99.90;;;;;;8263542;28;19914;-77
2023/04/01 22:02:16;;;;;;;;;;;5.90;99.90;;;;;;8257978;28;20515;-76
2023/04/01 22:06:22;;;;;;;;;;;6.00;99.90;;;;;;8215341;28;20390;-77
2023/04/01 22:11:01;;;;;;;;;;;6.10;99.90;;;;;;8253067;28;20166;-76
2023/04/01 22:15:29;;;;;;;;;;;6.00;99.90;;;;;;8157929;29;20380;-77
2023/04/01 22:19:40;;;;;;;;;;;5.90;99.90;;;;;;8213529;28;19910;-76
2023/04/01 22:24:16;;;;;;;;;;;5.70;99.90;;;;;;8237024;28;19921;-76
2023/04/01 22:28:21;;;;;;;;;;;5.70;99.90;;;;;;8173699;28;20458;-76
2023/04/01 22:32:28;;;;;;;;;;;5.70;99.90;;;;;;8249793;28;19913;-76
2023/04/01 22:36:41;;;;;;;;;;;5.80;99.90;;;;;;8260367;28;19992;-76
2023/04/01 22:40:45;;;;;;;;;;;5.90;99.90;;;;;;8250401;28;19912;-77
2023/04/01 22:45:12;;;;;;;;;;;5.90;99.90;;;;;;8221600;28;19941;-77
2023/04/01 22:49:22;;;;;;;;;;;5.80;99.90;;;;;;8242023;28;19960;-76
2023/04/01 22:53:28;;;;;;;;;;;5.70;99.90;;;;;;8245005;28;20490;-78
2023/04/01 22:57:36;;;;;;;;;;;5.60;99.90;;;;;;8241820;28;20205;-77
2023/04/01 23:01:41;;;;;;;;;;;5.60;99.90;;;;;;8242313;28;19918;-77
2023/04/01 23:05:52;;;;;;;;;;;5.40;99.90;;;;;;8232838;28;20540;-76
2023/04/01 23:09:55;;;;;;;;;;;5.40;99.90;;;;;;8229474;28;20374;-76
2023/04/01 23:14:18;;;;;;;;;;;5.30;99.90;;;;;;8255094;28;20290;-76
2023/04/01 23:18:18;;;;;;;;;;;5.30;99.90;;;;;;8262013;28;19992;-76
2023/04/01 23:22:19;;;;;;;;;;;5.30;99.90;;;;;;8261675;28;19910;-76
2023/04/01 23:26:20;;;;;;;;;;;5.20;99.90;;;;;;8260034;28;19909;-76
2023/04/01 23:30:40;;;;;;;;;;;5.20;99.90;;;;;;8252565;28;19913;-77
2023/04/01 23:34:45;;;;;;;;;;;5.00;99.90;;;;;;8260640;28;19937;-77
2023/04/01 23:38:48;;;;;;;;;;;4.70;99.90;;;;;;8260823;28;19910;-77
2023/04/01 23:42:48;;;;;;;;;;;4.90;99.90;;;;;;8260690;28;19914;-76
2023/04/01 23:46:49;;;;;;;;;;;5.10;99.90;;;;;;8260847;28;20055;-76
2023/04/01 23:50:50;;;;;;;;;;;5.40;99.90;;;;;;8260329;28;19906;-77
2023/04/01 23:54:52;;;;;;;;;;;5.60;99.90;;;;;;8255147;28;20034;-77
2023/04/01 23:58:55;;;;;;;;;;;5.80;99.90;;;;;;8257977;28;20282;-77
